sensor_id;sensor_type;location;lat;lon;timestamp;temperature;humidity
43858;DHT22;29507;51.284;5.758;2023-03-04T00:02:17;4.00;99.90
43858;DHT22;29507;51.284;5.758;2023-03-04T00:04:42;4.00;99.90
43858;DHT22;29507;51.284;5.758;2023-03-04T00:07:08;4.00;99.90
43858;DHT22;29507;51.284;5.758;2023-03-04T00:09:34;4.00;99.90
43858;DHT22;29507;51.284;5.758;2023-03-04T00:11:59;4.00;99.90
43858;DHT22;29507;51.284;5.758;2023-03-04T00:14:25;4.00;99.90
43858;DHT22;29507;51.284;5.758;2023-03-04T00:16:50;4.00;99.90
43858;DHT22;29507;51.284;5.758;2023-03-04T00:19:16;4.10;99.90
43858;DHT22;29507;51.284;5.758;2023-03-04T00:21:42;4.00;99.90
43858;DHT22;29507;51.284;5.758;2023-03-04T00:24:07;4.00;99.90
43858;DHT22;29507;51.284;5.758;2023-03-04T00:26:33;4.00;99.90
43858;DHT22;29507;51.284;5.758;2023-03-04T00:28:58;4.10;99.90
43858;DHT22;29507;51.284;5.758;2023-03-04T00:31:24;4.00;99.90
43858;DHT22;29507;51.284;5.758;2023-03-04T00:33:49;4.00;99.90
43858;DHT22;29507;51.284;5.758;2023-03-04T00:36:15;4.00;99.90
43858;DHT22;29507;51.284;5.758;2023-03-04T00:38:41;4.00;99.90
43858;DHT22;29507;51.284;5.758;2023-03-04T00:41:06;4.00;99.90
43858;DHT22;29507;51.284;5.758;2023-03-04T00:43:32;4.00;99.90
43858;DHT22;29507;51.284;5.758;2023-03-04T00:45:57;4.00;99.90
43858;DHT22;29507;51.284;5.758;2023-03-04T00:48:24;3.90;99.90
43858;DHT22;29507;51.284;5.758;2023-03-04T00:50:49;3.90;99.90
43858;DHT22;29507;51.284;5.758;2023-03-04T00:53:17;3.90;99.90
43858;DHT22;29507;51.284;5.758;2023-03-04T00:55:43;3.90;99.90
43858;DHT22;29507;51.284;5.758;2023-03-04T00:58:09;3.90;99.90
43858;DHT22;29507;51.284;5.758;2023-03-04T01:00:34;3.90;99.90
43858;DHT22;29507;51.284;5.758;2023-03-04T01:03:00;3.90;99.90
43858;DHT22;29507;51.284;5.758;2023-03-04T01:05:25;3.90;99.90
43858;DHT22;29507;51.284;5.758;2023-03-04T01:07:51;3.90;99.90
43858;DHT22;29507;51.284;5.758;2023-03-04T01:10:17;3.90;99.90
43858;DHT22;29507;51.284;5.758;2023-03-04T01:12:43;3.90;99.90
43858;DHT22;29507;51.284;5.758;2023-03-04T01:15:11;3.90;99.90
43858;DHT22;29507;51.284;5.758;2023-03-04T01:17:37;3.90;99.90
43858;DHT22;29507;51.284;5.758;2023-03-04T01:20:04;3.90;99.90
43858;DHT22;29507;51.284;5.758;2023-03-04T01:22:30;3.90;99.90
43858;DHT22;29507;51.284;5.758;2023-03-04T01:24:56;3.90;99.90
43858;DHT22;29507;51.284;5.758;2023-03-04T01:27:21;3.90;99.90
43858;DHT22;29507;51.284;5.758;2023-03-04T01:29:47;3.90;99.90
43858;DHT22;29507;51.284;5.758;2023-03-04T01:32:12;3.90;99.90
43858;DHT22;29507;51.284;5.758;2023-03-04T01:34:38;3.90;99.90
43858;DHT22;29507;51.284;5.758;2023-03-04T01:37:10;3.90;99.90
43858;DHT22;29507;51.284;5.758;2023-03-04T01:39:37;3.90;99.90
43858;DHT22;29507;51.284;5.758;2023-03-04T01:42:03;4.00;99.90
43858;DHT22;29507;51.284;5.758;2023-03-04T01:44:29;4.10;99.90
43858;DHT22;29507;51.284;5.758;2023-03-04T01:46:55;4.10;99.90
43858;DHT22;29507;51.284;5.758;2023-03-04T01:49:21;4.00;99.90
43858;DHT22;29507;51.284;5.758;2023-03-04T01:51:50;4.10;99.90
43858;DHT22;29507;51.284;5.758;2023-03-04T01:54:17;4.10;99.90
43858;DHT22;29507;51.284;5.758;2023-03-04T01:56:45;4.10;99.90
43858;DHT22;29507;51.284;5.758;2023-03-04T02:01:50;4.00;99.90
43858;DHT22;29507;51.284;5.758;2023-03-04T02:04:17;4.00;99.90
43858;DHT22;29507;51.284;5.758;2023-03-04T02:06:45;3.90;99.90
43858;DHT22;29507;51.284;5.758;2023-03-04T02:09:12;3.90;99.90
43858;DHT22;29507;51.284;5.758;2023-03-04T02:11:38;3.90;99.90
43858;DHT22;29507;51.284;5.758;2023-03-04T02:14:04;3.90;99.90
43858;DHT22;29507;51.284;5.758;2023-03-04T02:16:30;3.90;99.90
43858;DHT22;29507;51.284;5.758;2023-03-04T02:18:56;3.90;99.90
43858;DHT22;29507;51.284;5.758;2023-03-04T02:24:16;3.80;99.90
43858;DHT22;29507;51.284;5.758;2023-03-04T02:26:44;3.90;99.90
43858;DHT22;29507;51.284;5.758;2023-03-04T02:29:12;3.90;99.90
43858;DHT22;29507;51.284;5.758;2023-03-04T02:31:43;3.90;99.90
43858;DHT22;29507;51.284;5.758;2023-03-04T02:34:18;3.80;99.90
43858;DHT22;29507;51.284;5.758;2023-03-04T02:36:44;3.90;99.90
43858;DHT22;29507;51.284;5.758;2023-03-04T02:41:46;4.10;99.90
43858;DHT22;29507;51.284;5.758;2023-03-04T02:46:48;4.00;99.90
43858;DHT22;29507;51.284;5.758;2023-03-04T02:49:14;4.00;99.90
43858;DHT22;29507;51.284;5.758;2023-03-04T02:51:40;4.10;99.90
43858;DHT22;29507;51.284;5.758;2023-03-04T02:54:15;4.10;99.90
43858;DHT22;29507;51.284;5.758;2023-03-04T02:56:45;4.20;99.90
43858;DHT22;29507;51.284;5.758;2023-03-04T02:59:11;4.20;99.90
43858;DHT22;29507;51.284;5.758;2023-03-04T03:01:37;4.30;99.90
43858;DHT22;29507;51.284;5.758;2023-03-04T03:04:03;4.30;99.90
43858;DHT22;29507;51.284;5.758;2023-03-04T03:06:28;4.40;99.90
43858;DHT22;29507;51.284;5.758;2023-03-04T03:08:54;4.50;99.90
43858;DHT22;29507;51.284;5.758;2023-03-04T03:11:19;4.50;99.90
43858;DHT22;29507;51.284;5.758;2023-03-04T03:13:45;4.60;99.90
43858;DHT22;29507;51.284;5.758;2023-03-04T03:16:10;4.70;99.90
43858;DHT22;29507;51.284;5.758;2023-03-04T03:18:36;4.80;99.90
43858;DHT22;29507;51.284;5.758;2023-03-04T03:21:02;4.80;99.90
43858;DHT22;29507;51.284;5.758;2023-03-04T03:23:27;4.70;99.90
43858;DHT22;29507;51.284;5.758;2023-03-04T03:25:53;4.60;99.90
43858;DHT22;29507;51.284;5.758;2023-03-04T03:28:18;4.50;99.90
43858;DHT22;29507;51.284;5.758;2023-03-04T03:30:44;4.50;99.90
43858;DHT22;29507;51.284;5.758;2023-03-04T03:33:10;4.50;99.90
43858;DHT22;29507;51.284;5.758;2023-03-04T03:35:36;4.30;99.90
43858;DHT22;29507;51.284;5.758;2023-03-04T03:38:01;4.30;99.90
43858;DHT22;29507;51.284;5.758;2023-03-04T03:40:27;4.30;99.90
43858;DHT22;29507;51.284;5.758;2023-03-04T03:42:52;4.40;99.90
43858;DHT22;29507;51.284;5.758;2023-03-04T03:45:18;4.50;99.90
43858;DHT22;29507;51.284;5.758;2023-03-04T03:47:44;4.50;99.90
43858;DHT22;29507;51.284;5.758;2023-03-04T03:50:10;4.50;99.90
43858;DHT22;29507;51.284;5.758;2023-03-04T03:52:36;4.50;99.90
43858;DHT22;29507;51.284;5.758;2023-03-04T03:55:01;4.40;99.90
43858;DHT22;29507;51.284;5.758;2023-03-04T03:57:28;4.40;99.90
43858;DHT22;29507;51.284;5.758;2023-03-04T03:59:54;4.40;99.90
43858;DHT22;29507;51.284;5.758;2023-03-04T04:02:19;4.40;99.90
43858;DHT22;29507;51.284;5.758;2023-03-04T04:04:45;4.40;99.90
43858;DHT22;29507;51.284;5.758;2023-03-04T04:07:11;4.40;99.90
43858;DHT22;29507;51.284;5.758;2023-03-04T04:09:36;4.30;99.90
43858;DHT22;29507;51.284;5.758;2023-03-04T04:12:04;4.20;99.90
43858;DHT22;29507;51.284;5.758;2023-03-04T04:14:30;4.20;99.90
43858;DHT22;29507;51.284;5.758;2023-03-04T04:16:56;4.20;99.90
43858;DHT22;29507;51.284;5.758;2023-03-04T04:19:21;4.30;99.90
43858;DHT22;29507;51.284;5.758;2023-03-04T04:21:47;4.40;99.90
43858;DHT22;29507;51.284;5.758;2023-03-04T04:24:13;4.50;99.90
43858;DHT22;29507;51.284;5.758;2023-03-04T04:26:39;4.50;99.90
43858;DHT22;29507;51.284;5.758;2023-03-04T04:29:05;4.60;99.90
43858;DHT22;29507;51.284;5.758;2023-03-04T04:31:31;4.50;99.90
43858;DHT22;29507;51.284;5.758;2023-03-04T04:33:57;4.60;99.90
43858;DHT22;29507;51.284;5.758;2023-03-04T04:36:22;4.40;99.90
43858;DHT22;29507;51.284;5.758;2023-03-04T04:38:48;4.30;99.90
43858;DHT22;29507;51.284;5.758;2023-03-04T04:41:23;4.40;99.90
43858;DHT22;29507;51.284;5.758;2023-03-04T04:43:48;4.30;99.90
43858;DHT22;29507;51.284;5.758;2023-03-04T04:46:15;4.40;99.90
43858;DHT22;29507;51.284;5.758;2023-03-04T04:48:41;4.50;99.90
43858;DHT22;29507;51.284;5.758;2023-03-04T04:51:06;4.40;99.90
43858;DHT22;29507;51.284;5.758;2023-03-04T04:53:32;4.40;99.90
43858;DHT22;29507;51.284;5.758;2023-03-04T04:55:58;4.30;99.90
43858;DHT22;29507;51.284;5.758;2023-03-04T04:58:23;4.40;99.90
43858;DHT22;29507;51.284;5.758;2023-03-04T05:00:49;4.40;99.90
43858;DHT22;29507;51.284;5.758;2023-03-04T05:03:14;4.40;99.90
43858;DHT22;29507;51.284;5.758;2023-03-04T05:05:40;4.40;99.90
43858;DHT22;29507;51.284;5.758;2023-03-04T05:08:06;4.50;99.90
43858;DHT22;29507;51.284;5.758;2023-03-04T05:10:32;4.40;99.90
43858;DHT22;29507;51.284;5.758;2023-03-04T05:12:57;4.30;99.90
43858;DHT22;29507;51.284;5.758;2023-03-04T05:15:23;4.20;99.90
43858;DHT22;29507;51.284;5.758;2023-03-04T05:17:49;4.20;99.90
43858;DHT22;29507;51.284;5.758;2023-03-04T05:20:14;4.10;99.90
43858;DHT22;29507;51.284;5.758;2023-03-04T05:22:40;4.00;99.90
43858;DHT22;29507;51.284;5.758;2023-03-04T05:25:06;4.10;99.90
43858;DHT22;29507;51.284;5.758;2023-03-04T05:27:32;4.00;99.90
43858;DHT22;29507;51.284;5.758;2023-03-04T05:29:58;4.00;99.90
43858;DHT22;29507;51.284;5.758;2023-03-04T05:32:27;4.00;99.90
43858;DHT22;29507;51.284;5.758;2023-03-04T05:34:52;3.90;99.90
43858;DHT22;29507;51.284;5.758;2023-03-04T05:37:18;3.90;99.90
43858;DHT22;29507;51.284;5.758;2023-03-04T05:39:43;4.00;99.90
43858;DHT22;29507;51.284;5.758;2023-03-04T05:42:09;3.90;99.90
43858;DHT22;29507;51.284;5.758;2023-03-04T05:44:35;3.90;99.90
43858;DHT22;29507;51.284;5.758;2023-03-04T05:47:00;3.90;99.90
43858;DHT22;29507;51.284;5.758;2023-03-04T05:49:26;3.90;99.90
43858;DHT22;29507;51.284;5.758;2023-03-04T05:51:51;3.90;99.90
43858;DHT22;29507;51.284;5.758;2023-03-04T05:54:17;3.90;99.90
43858;DHT22;29507;51.284;5.758;2023-03-04T05:56:43;3.90;99.90
43858;DHT22;29507;51.284;5.758;2023-03-04T05:59:08;4.00;99.90
43858;DHT22;29507;51.284;5.758;2023-03-04T06:01:34;4.00;99.90
43858;DHT22;29507;51.284;5.758;2023-03-04T06:03:59;4.30;99.90
43858;DHT22;29507;51.284;5.758;2023-03-04T06:06:25;4.40;99.90
43858;DHT22;29507;51.284;5.758;2023-03-04T06:08:51;4.50;99.90
43858;DHT22;29507;51.284;5.758;2023-03-04T06:11:16;4.60;99.90
43858;DHT22;29507;51.284;5.758;2023-03-04T06:13:42;4.60;99.90
43858;DHT22;29507;51.284;5.758;2023-03-04T06:16:08;4.60;99.90
43858;DHT22;29507;51.284;5.758;2023-03-04T06:18:34;4.70;99.90
43858;DHT22;29507;51.284;5.758;2023-03-04T06:21:01;4.60;99.90
43858;DHT22;29507;51.284;5.758;2023-03-04T06:23:28;4.60;99.90
43858;DHT22;29507;51.284;5.758;2023-03-04T06:25:56;4.50;99.90
43858;DHT22;29507;51.284;5.758;2023-03-04T06:28:22;4.40;99.90
43858;DHT22;29507;51.284;5.758;2023-03-04T06:30:51;4.40;99.90
43858;DHT22;29507;51.284;5.758;2023-03-04T06:33:17;4.40;99.90
43858;DHT22;29507;51.284;5.758;2023-03-04T06:35:43;4.30;99.90
43858;DHT22;29507;51.284;5.758;2023-03-04T06:38:08;4.20;99.90
43858;DHT22;29507;51.284;5.758;2023-03-04T06:40:34;4.30;99.90
43858;DHT22;29507;51.284;5.758;2023-03-04T06:43:00;4.20;99.90
43858;DHT22;29507;51.284;5.758;2023-03-04T06:45:25;4.20;99.90
43858;DHT22;29507;51.284;5.758;2023-03-04T06:47:51;4.20;99.90
43858;DHT22;29507;51.284;5.758;2023-03-04T06:50:17;4.20;99.90
43858;DHT22;29507;51.284;5.758;2023-03-04T06:52:42;4.20;99.90
43858;DHT22;29507;51.284;5.758;2023-03-04T06:55:08;4.30;99.90
43858;DHT22;29507;51.284;5.758;2023-03-04T06:57:34;4.20;99.90
43858;DHT22;29507;51.284;5.758;2023-03-04T07:00:00;4.20;99.90
43858;DHT22;29507;51.284;5.758;2023-03-04T07:02:27;4.20;99.90
43858;DHT22;29507;51.284;5.758;2023-03-04T07:04:53;4.20;99.90
43858;DHT22;29507;51.284;5.758;2023-03-04T07:07:19;4.40;99.90
43858;DHT22;29507;51.284;5.758;2023-03-04T07:09:44;4.50;99.90
43858;DHT22;29507;51.284;5.758;2023-03-04T07:12:10;4.50;99.90
43858;DHT22;29507;51.284;5.758;2023-03-04T07:14:36;4.50;99.90
43858;DHT22;29507;51.284;5.758;2023-03-04T07:17:01;4.40;99.90
43858;DHT22;29507;51.284;5.758;2023-03-04T07:19:27;4.40;99.90
43858;DHT22;29507;51.284;5.758;2023-03-04T07:21:52;4.30;99.90
43858;DHT22;29507;51.284;5.758;2023-03-04T07:24:18;4.40;99.90
43858;DHT22;29507;51.284;5.758;2023-03-04T07:26:44;4.30;99.90
43858;DHT22;29507;51.284;5.758;2023-03-04T07:29:10;4.30;99.90
43858;DHT22;29507;51.284;5.758;2023-03-04T07:31:36;4.30;99.90
43858;DHT22;29507;51.284;5.758;2023-03-04T07:34:05;4.30;99.90
43858;DHT22;29507;51.284;5.758;2023-03-04T07:36:31;4.30;99.90
43858;DHT22;29507;51.284;5.758;2023-03-04T07:38:57;4.30;99.90
43858;DHT22;29507;51.284;5.758;2023-03-04T07:41:25;4.30;99.90
43858;DHT22;29507;51.284;5.758;2023-03-04T07:43:51;4.30;99.90
43858;DHT22;29507;51.284;5.758;2023-03-04T07:46:17;4.30;99.90
43858;DHT22;29507;51.284;5.758;2023-03-04T07:48:44;4.30;99.90
43858;DHT22;29507;51.284;5.758;2023-03-04T07:51:18;4.30;99.90
43858;DHT22;29507;51.284;5.758;2023-03-04T07:53:46;4.30;99.90
43858;DHT22;29507;51.284;5.758;2023-03-04T07:56:14;4.40;99.90
43858;DHT22;29507;51.284;5.758;2023-03-04T07:58:41;4.40;99.90
43858;DHT22;29507;51.284;5.758;2023-03-04T08:01:19;4.50;99.90
43858;DHT22;29507;51.284;5.758;2023-03-04T08:03:45;4.50;99.90
43858;DHT22;29507;51.284;5.758;2023-03-04T08:06:12;4.60;99.90
43858;DHT22;29507;51.284;5.758;2023-03-04T08:08:39;4.60;99.90
43858;DHT22;29507;51.284;5.758;2023-03-04T08:11:10;4.60;99.90
43858;DHT22;29507;51.284;5.758;2023-03-04T08:13:35;4.70;99.90
43858;DHT22;29507;51.284;5.758;2023-03-04T08:16:02;4.70;99.90
43858;DHT22;29507;51.284;5.758;2023-03-04T08:18:28;4.80;99.90
43858;DHT22;29507;51.284;5.758;2023-03-04T08:20:54;4.80;99.90
43858;DHT22;29507;51.284;5.758;2023-03-04T08:23:19;4.90;99.90
43858;DHT22;29507;51.284;5.758;2023-03-04T08:25:46;4.90;99.90
43858;DHT22;29507;51.284;5.758;2023-03-04T08:28:12;5.00;99.90
43858;DHT22;29507;51.284;5.758;2023-03-04T08:30:39;5.00;99.90
43858;DHT22;29507;51.284;5.758;2023-03-04T08:33:05;5.10;99.90
43858;DHT22;29507;51.284;5.758;2023-03-04T08:35:31;5.20;99.90
43858;DHT22;29507;51.284;5.758;2023-03-04T08:37:57;5.40;99.90
43858;DHT22;29507;51.284;5.758;2023-03-04T08:40:23;5.60;99.90
43858;DHT22;29507;51.284;5.758;2023-03-04T08:42:50;5.90;99.90
43858;DHT22;29507;51.284;5.758;2023-03-04T08:45:16;6.20;99.90
43858;DHT22;29507;51.284;5.758;2023-03-04T08:47:42;6.50;99.90
43858;DHT22;29507;51.284;5.758;2023-03-04T08:50:08;6.70;99.90
43858;DHT22;29507;51.284;5.758;2023-03-04T08:52:34;7.10;99.90
43858;DHT22;29507;51.284;5.758;2023-03-04T08:55:00;7.00;99.90
43858;DHT22;29507;51.284;5.758;2023-03-04T08:57:25;7.00;99.90
43858;DHT22;29507;51.284;5.758;2023-03-04T08:59:51;7.30;99.90
43858;DHT22;29507;51.284;5.758;2023-03-04T09:02:17;8.00;99.90
43858;DHT22;29507;51.284;5.758;2023-03-04T09:04:42;8.30;99.90
43858;DHT22;29507;51.284;5.758;2023-03-04T09:07:08;8.20;99.90
43858;DHT22;29507;51.284;5.758;2023-03-04T09:09:34;8.00;99.90
43858;DHT22;29507;51.284;5.758;2023-03-04T09:12:00;7.80;99.90
43858;DHT22;29507;51.284;5.758;2023-03-04T09:14:25;7.90;99.90
43858;DHT22;29507;51.284;5.758;2023-03-04T09:16:51;7.80;99.90
43858;DHT22;29507;51.284;5.758;2023-03-04T09:19:19;7.90;99.90
43858;DHT22;29507;51.284;5.758;2023-03-04T09:21:44;8.40;99.90
43858;DHT22;29507;51.284;5.758;2023-03-04T09:24:10;8.50;99.90
43858;DHT22;29507;51.284;5.758;2023-03-04T09:26:35;8.20;99.90
43858;DHT22;29507;51.284;5.758;2023-03-04T09:29:02;7.80;99.90
43858;DHT22;29507;51.284;5.758;2023-03-04T09:31:28;7.90;99.90
43858;DHT22;29507;51.284;5.758;2023-03-04T09:33:56;9.00;99.90
43858;DHT22;29507;51.284;5.758;2023-03-04T09:36:25;10.10;99.90
43858;DHT22;29507;51.284;5.758;2023-03-04T09:38:50;10.10;99.90
43858;DHT22;29507;51.284;5.758;2023-03-04T09:41:22;9.30;99.90
43858;DHT22;29507;51.284;5.758;2023-03-04T09:43:50;8.50;99.90
43858;DHT22;29507;51.284;5.758;2023-03-04T09:46:38;7.90;99.90
43858;DHT22;29507;51.284;5.758;2023-03-04T09:49:05;7.80;99.90
43858;DHT22;29507;51.284;5.758;2023-03-04T09:54:07;7.80;99.90
43858;DHT22;29507;51.284;5.758;2023-03-04T09:56:37;7.80;99.90
43858;DHT22;29507;51.284;5.758;2023-03-04T10:01:49;8.00;99.90
43858;DHT22;29507;51.284;5.758;2023-03-04T10:04:39;8.00;99.90
43858;DHT22;29507;51.284;5.758;2023-03-04T10:07:12;8.40;99.90
43858;DHT22;29507;51.284;5.758;2023-03-04T10:12:14;8.90;99.90
43858;DHT22;29507;51.284;5.758;2023-03-04T10:15:15;9.20;99.90
43858;DHT22;29507;51.284;5.758;2023-03-04T10:17:44;9.40;99.90
43858;DHT22;29507;51.284;5.758;2023-03-04T10:20:47;9.40;99.90
43858;DHT22;29507;51.284;5.758;2023-03-04T10:23:17;9.30;99.90
43858;DHT22;29507;51.284;5.758;2023-03-04T10:25:44;8.70;99.90
43858;DHT22;29507;51.284;5.758;2023-03-04T10:33:29;7.50;99.90
43858;DHT22;29507;51.284;5.758;2023-03-04T10:38:34;7.90;99.90
43858;DHT22;29507;51.284;5.758;2023-03-04T10:41:01;8.40;99.90
43858;DHT22;29507;51.284;5.758;2023-03-04T10:43:35;8.80;99.90
43858;DHT22;29507;51.284;5.758;2023-03-04T10:46:01;8.90;99.90
43858;DHT22;29507;51.284;5.758;2023-03-04T10:48:29;9.00;99.90
43858;DHT22;29507;51.284;5.758;2023-03-04T10:51:18;8.80;99.90
43858;DHT22;29507;51.284;5.758;2023-03-04T10:53:44;8.60;99.90
43858;DHT22;29507;51.284;5.758;2023-03-04T10:56:39;8.70;99.90
43858;DHT22;29507;51.284;5.758;2023-03-04T11:07:24;7.90;99.90
43858;DHT22;29507;51.284;5.758;2023-03-04T11:09:52;7.80;99.90
43858;DHT22;29507;51.284;5.758;2023-03-04T11:12:31;7.80;99.90
43858;DHT22;29507;51.284;5.758;2023-03-04T11:14:57;7.90;99.90
43858;DHT22;29507;51.284;5.758;2023-03-04T11:17:24;7.90;99.90
43858;DHT22;29507;51.284;5.758;2023-03-04T11:22:44;8.00;99.90
43858;DHT22;29507;51.284;5.758;2023-03-04T11:25:30;8.20;99.90
43858;DHT22;29507;51.284;5.758;2023-03-04T11:27:59;8.50;99.90
43858;DHT22;29507;51.284;5.758;2023-03-04T11:30:37;8.60;99.90
43858;DHT22;29507;51.284;5.758;2023-03-04T11:33:11;8.50;99.90
43858;DHT22;29507;51.284;5.758;2023-03-04T11:40:51;8.00;99.90
43858;DHT22;29507;51.284;5.758;2023-03-04T11:51:24;7.70;99.90
43858;DHT22;29507;51.284;5.758;2023-03-04T11:56:35;7.80;99.90
43858;DHT22;29507;51.284;5.758;2023-03-04T12:06:58;10.20;99.90
43858;DHT22;29507;51.284;5.758;2023-03-04T12:20:22;8.20;99.90
43858;DHT22;29507;51.284;5.758;2023-03-04T12:23:16;8.00;99.90
43858;DHT22;29507;51.284;5.758;2023-03-04T12:28:46;7.90;99.90
43858;DHT22;29507;51.284;5.758;2023-03-04T12:31:32;8.00;99.90
43858;DHT22;29507;51.284;5.758;2023-03-04T12:39:39;8.20;99.90
43858;DHT22;29507;51.284;5.758;2023-03-04T12:55:39;8.80;99.90
43858;DHT22;29507;51.284;5.758;2023-03-04T12:58:14;8.60;99.90
43858;DHT22;29507;51.284;5.758;2023-03-04T13:00:54;8.20;99.90
43858;DHT22;29507;51.284;5.758;2023-03-04T13:14:03;7.50;99.90
43858;DHT22;29507;51.284;5.758;2023-03-04T13:16:53;7.50;99.90
43858;DHT22;29507;51.284;5.758;2023-03-04T13:19:42;7.60;99.90
43858;DHT22;29507;51.284;5.758;2023-03-04T13:25:40;7.70;99.90
43858;DHT22;29507;51.284;5.758;2023-03-04T13:43:56;7.90;99.90
43858;DHT22;29507;51.284;5.758;2023-03-04T13:56:48;7.90;99.90
43858;DHT22;29507;51.284;5.758;2023-03-04T13:59:43;7.80;99.90
43858;DHT22;29507;51.284;5.758;2023-03-04T14:02:20;7.70;99.90
43858;DHT22;29507;51.284;5.758;2023-03-04T14:07:33;7.60;99.90
43858;DHT22;29507;51.284;5.758;2023-03-04T14:12:44;7.50;99.90
43858;DHT22;29507;51.284;5.758;2023-03-04T14:17:39;7.60;99.90
43858;DHT22;29507;51.284;5.758;2023-03-04T14:20:25;7.50;99.90
43858;DHT22;29507;51.284;5.758;2023-03-04T14:22:51;7.40;99.90
43858;DHT22;29507;51.284;5.758;2023-03-04T14:25:29;7.40;99.90
43858;DHT22;29507;51.284;5.758;2023-03-04T14:28:04;7.20;99.90
43858;DHT22;29507;51.284;5.758;2023-03-04T14:30:31;7.10;99.90
43858;DHT22;29507;51.284;5.758;2023-03-04T14:32:58;6.90;99.90
43858;DHT22;29507;51.284;5.758;2023-03-04T14:35:26;6.70;99.90
43858;DHT22;29507;51.284;5.758;2023-03-04T14:38:07;6.70;99.90
43858;DHT22;29507;51.284;5.758;2023-03-04T14:40:40;6.50;99.90
43858;DHT22;29507;51.284;5.758;2023-03-04T14:45:39;6.20;99.90
43858;DHT22;29507;51.284;5.758;2023-03-04T14:48:06;6.20;99.90
43858;DHT22;29507;51.284;5.758;2023-03-04T14:50:32;6.10;99.90
43858;DHT22;29507;51.284;5.758;2023-03-04T14:55:34;6.10;99.90
43858;DHT22;29507;51.284;5.758;2023-03-04T14:58:08;6.10;99.90
43858;DHT22;29507;51.284;5.758;2023-03-04T15:00:36;6.10;99.90
43858;DHT22;29507;51.284;5.758;2023-03-04T15:03:06;6.00;99.90
43858;DHT22;29507;51.284;5.758;2023-03-04T15:05:33;6.00;99.90
43858;DHT22;29507;51.284;5.758;2023-03-04T15:08:00;6.10;99.90
43858;DHT22;29507;51.284;5.758;2023-03-04T15:10:35;6.10;99.90
43858;DHT22;29507;51.284;5.758;2023-03-04T15:13:04;6.20;99.90
43858;DHT22;29507;51.284;5.758;2023-03-04T15:18:26;6.20;99.90
43858;DHT22;29507;51.284;5.758;2023-03-04T15:20:57;6.20;99.90
43858;DHT22;29507;51.284;5.758;2023-03-04T15:23:26;6.30;99.90
43858;DHT22;29507;51.284;5.758;2023-03-04T15:25:54;6.30;99.90
43858;DHT22;29507;51.284;5.758;2023-03-04T15:28:22;6.30;99.90
43858;DHT22;29507;51.284;5.758;2023-03-04T15:30:48;6.40;99.90
43858;DHT22;29507;51.284;5.758;2023-03-04T15:33:14;6.30;99.90
43858;DHT22;29507;51.284;5.758;2023-03-04T15:35:49;6.30;99.90
43858;DHT22;29507;51.284;5.758;2023-03-04T15:38:19;6.40;99.90
43858;DHT22;29507;51.284;5.758;2023-03-04T15:40:45;6.40;99.90
43858;DHT22;29507;51.284;5.758;2023-03-04T15:43:15;6.40;99.90
43858;DHT22;29507;51.284;5.758;2023-03-04T15:45:42;6.40;99.90
43858;DHT22;29507;51.284;5.758;2023-03-04T15:48:11;6.40;99.90
43858;DHT22;29507;51.284;5.758;2023-03-04T15:50:40;6.30;99.90
43858;DHT22;29507;51.284;5.758;2023-03-04T15:53:08;6.30;99.90
43858;DHT22;29507;51.284;5.758;2023-03-04T15:55:34;6.30;99.90
43858;DHT22;29507;51.284;5.758;2023-03-04T15:58:00;6.30;99.90
43858;DHT22;29507;51.284;5.758;2023-03-04T16:00:30;6.40;99.90
43858;DHT22;29507;51.284;5.758;2023-03-04T16:02:58;6.40;99.90
43858;DHT22;29507;51.284;5.758;2023-03-04T16:05:24;6.40;99.90
43858;DHT22;29507;51.284;5.758;2023-03-04T16:07:50;6.50;99.90
43858;DHT22;29507;51.284;5.758;2023-03-04T16:10:21;6.50;99.90
43858;DHT22;29507;51.284;5.758;2023-03-04T16:12:58;6.50;99.90
43858;DHT22;29507;51.284;5.758;2023-03-04T16:15:27;6.60;99.90
43858;DHT22;29507;51.284;5.758;2023-03-04T16:17:53;6.60;99.90
43858;DHT22;29507;51.284;5.758;2023-03-04T16:20:26;6.60;99.90
43858;DHT22;29507;51.284;5.758;2023-03-04T16:22:56;6.60;99.90
43858;DHT22;29507;51.284;5.758;2023-03-04T16:25:23;6.50;99.90
43858;DHT22;29507;51.284;5.758;2023-03-04T16:27:51;6.50;99.90
43858;DHT22;29507;51.284;5.758;2023-03-04T16:30:20;6.50;99.90
43858;DHT22;29507;51.284;5.758;2023-03-04T16:32:47;6.50;99.90
43858;DHT22;29507;51.284;5.758;2023-03-04T16:35:14;6.50;99.90
43858;DHT22;29507;51.284;5.758;2023-03-04T16:37:41;6.60;99.90
43858;DHT22;29507;51.284;5.758;2023-03-04T16:40:11;6.50;99.90
43858;DHT22;29507;51.284;5.758;2023-03-04T16:42:38;6.60;99.90
43858;DHT22;29507;51.284;5.758;2023-03-04T16:45:05;6.50;99.90
43858;DHT22;29507;51.284;5.758;2023-03-04T16:47:31;6.50;99.90
43858;DHT22;29507;51.284;5.758;2023-03-04T16:49:58;6.40;99.90
43858;DHT22;29507;51.284;5.758;2023-03-04T16:52:30;6.40;99.90
43858;DHT22;29507;51.284;5.758;2023-03-04T16:54:56;6.40;99.90
43858;DHT22;29507;51.284;5.758;2023-03-04T16:57:22;6.30;99.90
43858;DHT22;29507;51.284;5.758;2023-03-04T16:59:48;6.30;99.90
43858;DHT22;29507;51.284;5.758;2023-03-04T17:02:16;6.20;99.90
43858;DHT22;29507;51.284;5.758;2023-03-04T17:04:43;6.20;99.90
43858;DHT22;29507;51.284;5.758;2023-03-04T17:07:09;6.20;99.90
43858;DHT22;29507;51.284;5.758;2023-03-04T17:09:34;6.20;99.90
43858;DHT22;29507;51.284;5.758;2023-03-04T17:12:06;6.10;99.90
43858;DHT22;29507;51.284;5.758;2023-03-04T17:14:32;6.20;99.90
43858;DHT22;29507;51.284;5.758;2023-03-04T17:16:58;6.00;99.90
43858;DHT22;29507;51.284;5.758;2023-03-04T17:19:24;6.00;99.90
43858;DHT22;29507;51.284;5.758;2023-03-04T17:21:49;5.90;99.90
43858;DHT22;29507;51.284;5.758;2023-03-04T17:24:15;6.00;99.90
43858;DHT22;29507;51.284;5.758;2023-03-04T17:26:41;6.10;99.90
43858;DHT22;29507;51.284;5.758;2023-03-04T17:29:07;6.00;99.90
43858;DHT22;29507;51.284;5.758;2023-03-04T17:31:34;6.10;99.90
43858;DHT22;29507;51.284;5.758;2023-03-04T17:34:00;6.10;99.90
43858;DHT22;29507;51.284;5.758;2023-03-04T17:36:25;6.10;99.90
43858;DHT22;29507;51.284;5.758;2023-03-04T17:38:51;6.00;99.90
43858;DHT22;29507;51.284;5.758;2023-03-04T17:41:18;5.90;99.90
43858;DHT22;29507;51.284;5.758;2023-03-04T17:43:49;5.90;99.90
43858;DHT22;29507;51.284;5.758;2023-03-04T17:46:18;5.80;99.90
43858;DHT22;29507;51.284;5.758;2023-03-04T17:48:44;5.70;99.90
43858;DHT22;29507;51.284;5.758;2023-03-04T17:51:10;5.70;99.90
43858;DHT22;29507;51.284;5.758;2023-03-04T17:53:36;5.70;99.90
43858;DHT22;29507;51.284;5.758;2023-03-04T17:56:04;5.70;99.90
43858;DHT22;29507;51.284;5.758;2023-03-04T17:58:32;5.60;99.90
43858;DHT22;29507;51.284;5.758;2023-03-04T18:01:04;5.60;99.90
43858;DHT22;29507;51.284;5.758;2023-03-04T18:03:30;5.60;99.90
43858;DHT22;29507;51.284;5.758;2023-03-04T18:05:56;5.70;99.90
43858;DHT22;29507;51.284;5.758;2023-03-04T18:08:21;5.70;99.90
43858;DHT22;29507;51.284;5.758;2023-03-04T18:10:47;5.70;99.90
43858;DHT22;29507;51.284;5.758;2023-03-04T18:13:12;5.80;99.90
43858;DHT22;29507;51.284;5.758;2023-03-04T18:15:41;5.80;99.90
43858;DHT22;29507;51.284;5.758;2023-03-04T18:18:06;5.80;99.90
43858;DHT22;29507;51.284;5.758;2023-03-04T18:20:32;5.70;99.90